createdAt,value
2018-12-10T00:00:13.625Z,0
2018-12-10T00:01:13.340Z,0
2018-12-10T00:02:13.318Z,0
2018-12-10T00:03:13.307Z,0
2018-12-10T00:04:13.048Z,0
2018-12-10T00:05:13.277Z,0
2018-12-10T00:06:13.508Z,0
2018-12-10T00:07:13.250Z,0
2018-12-10T00:08:13.473Z,0
2018-12-10T00:09:13.456Z,0
2018-12-10T00:10:13.436Z,0
2018-12-10T00:11:13.181Z,0
2018-12-10T00:12:13.397Z,0
2018-12-10T00:13:13.147Z,0
2018-12-10T00:14:13.125Z,0
2018-12-10T00:15:13.112Z,0
2018-12-10T00:16:13.081Z,0
2018-12-10T00:17:13.315Z,0
2018-12-10T00:18:13.307Z,0
2018-12-10T00:19:13.290Z,0
2018-12-10T00:20:13.019Z,0
2018-12-10T00:21:13.296Z,0
2018-12-10T00:22:12.980Z,0
2018-12-10T00:23:13.220Z,0
2018-12-10T00:24:13.217Z,0
2018-12-10T00:25:13.185Z,0
2018-12-10T00:26:13.169Z,0
2018-12-10T00:27:14.129Z,0
2018-12-10T00:28:12.877Z,0
2018-12-10T00:29:13.129Z,0
2018-12-10T00:30:13.107Z,0
2018-12-10T00:31:13.079Z,0
2018-12-10T00:32:13.069Z,0
2018-12-10T00:33:13.043Z,0
2018-12-10T00:34:13.206Z,0
2018-12-10T00:35:13.004Z,0
2018-12-10T00:36:12.743Z,0
2018-12-10T00:37:13.086Z,0
2018-12-10T00:38:12.959Z,0
2018-12-10T00:39:12.693Z,0
2018-12-10T00:40:12.674Z,0
2018-12-10T00:41:12.655Z,0
2018-12-10T00:42:12.893Z,0
2018-12-10T00:43:12.629Z,0
2018-12-10T00:44:12.849Z,0
2018-12-10T00:45:12.590Z,0
2018-12-10T00:46:12.570Z,0
2018-12-10T00:47:12.792Z,0
2018-12-10T00:48:12.777Z,0
2018-12-10T00:49:12.761Z,0
2018-12-10T00:50:12.743Z,0
2018-12-10T00:51:12.723Z,0
2018-12-10T00:52:12.707Z,0
2018-12-10T00:53:12.205Z,0
2018-12-10T00:54:12.430Z,0
2018-12-10T00:55:12.414Z,0
2018-12-10T00:56:12.634Z,0
2018-12-10T00:57:12.621Z,0
2018-12-10T00:58:12.608Z,0
2018-12-10T00:59:12.334Z,0
2018-12-10T01:00:12.583Z,0
2018-12-10T01:01:12.651Z,0
2018-12-10T01:02:12.545Z,0
2018-12-10T01:03:12.514Z,0
2018-12-10T01:04:12.507Z,0
2018-12-10T01:05:11.992Z,0
2018-12-10T01:06:12.464Z,0
2018-12-10T01:07:12.457Z,0
2018-12-10T01:08:12.442Z,0
2018-12-10T01:09:12.166Z,0
2018-12-10T01:10:12.406Z,0
2018-12-10T01:11:12.137Z,0
2018-12-10T01:12:12.000Z,0
2018-12-10T01:13:12.343Z,0
2018-12-10T01:14:12.324Z,0
2018-12-10T01:15:12.354Z,0
2018-12-10T01:16:12.038Z,0
2018-12-10T01:17:12.267Z,0
2018-12-10T01:18:12.016Z,0
2018-12-10T01:19:12.242Z,0
2018-12-10T01:20:12.217Z,0
2018-12-10T01:21:12.202Z,0
2018-12-10T01:22:11.936Z,0
2018-12-10T01:23:12.174Z,0
2018-12-10T01:24:11.903Z,0
2018-12-10T01:25:12.133Z,0
2018-12-10T01:26:12.125Z,0
2018-12-10T01:27:12.103Z,0
2018-12-10T01:28:12.075Z,0
2018-12-10T01:29:12.075Z,0
2018-12-10T01:30:12.082Z,0
2018-12-10T01:31:12.050Z,0
2018-12-10T01:32:12.009Z,0
2018-12-10T01:33:11.739Z,0
2018-12-10T01:34:11.971Z,0
2018-12-10T01:35:11.704Z,0
2018-12-10T01:36:11.946Z,0
2018-12-10T01:37:11.919Z,0
2018-12-10T01:38:11.649Z,0
2018-12-10T01:39:11.885Z,0
2018-12-10T01:40:11.864Z,0
2018-12-10T01:41:11.847Z,0
2018-12-10T01:42:11.590Z,0
2018-12-10T01:43:11.564Z,0
2018-12-10T01:44:11.797Z,0
2018-12-10T01:45:11.784Z,0
2018-12-10T01:46:11.757Z,0
2018-12-10T01:47:11.495Z,0
2018-12-10T01:48:11.726Z,0
2018-12-10T01:49:11.816Z,0
2018-12-10T01:50:11.684Z,0
2018-12-10T01:51:11.679Z,0
2018-12-10T01:52:11.414Z,0
2018-12-10T01:53:11.634Z,0
2018-12-10T01:54:11.619Z,0
2018-12-10T01:55:11.612Z,0
2018-12-10T01:56:11.735Z,0
2018-12-10T01:57:11.319Z,0
2018-12-10T01:58:11.307Z,0
2018-12-10T01:59:11.530Z,0
2018-12-10T02:00:11.589Z,0
2018-12-10T02:01:11.498Z,0
2018-12-10T02:02:11.481Z,0
2018-12-10T02:03:11.466Z,0
2018-12-10T02:04:11.444Z,0
2018-12-10T02:05:11.427Z,0
2018-12-10T02:06:11.408Z,0
2018-12-10T02:07:11.392Z,0
2018-12-10T02:08:11.375Z,0
2018-12-10T02:09:11.355Z,0
2018-12-10T02:10:11.089Z,0
2018-12-10T02:11:11.328Z,0
2018-12-10T02:12:11.071Z,0
2018-12-10T02:13:11.288Z,0
2018-12-10T02:14:11.278Z,0
2018-12-10T02:15:11.252Z,0
2018-12-10T02:16:10.837Z,0
2018-12-10T02:17:11.225Z,0
2018-12-10T02:18:11.196Z,0
2018-12-10T02:19:11.190Z,0
2018-12-10T02:20:11.168Z,0
2018-12-10T02:21:11.146Z,0
2018-12-10T02:22:11.261Z,0
2018-12-10T02:23:11.109Z,0
2018-12-10T02:24:10.843Z,0
2018-12-10T02:25:11.094Z,0
2018-12-10T02:26:11.155Z,0
2018-12-10T02:27:11.034Z,0
2018-12-10T02:28:11.018Z,0
2018-12-10T02:29:11.003Z,0
2018-12-10T02:30:11.146Z,0
2018-12-10T02:31:10.975Z,0
2018-12-10T02:32:10.993Z,0
2018-12-10T02:33:10.973Z,0
2018-12-10T02:34:10.912Z,0
2018-12-10T02:35:10.923Z,0
2018-12-10T02:36:10.955Z,0
2018-12-10T02:37:10.864Z,0
2018-12-10T02:38:10.853Z,0
2018-12-10T02:39:10.336Z,0
2018-12-10T02:40:10.815Z,0
2018-12-10T02:41:10.793Z,0
2018-12-10T02:42:10.779Z,0
2018-12-10T02:43:10.257Z,0
2018-12-10T02:44:10.736Z,0
2018-12-10T02:45:10.541Z,0
2018-12-10T02:46:10.220Z,0
2018-12-10T02:47:10.692Z,0
2018-12-10T02:48:10.794Z,0
2018-12-10T02:49:10.413Z,0
2018-12-10T02:50:10.773Z,0
2018-12-10T02:51:10.625Z,0
2018-12-10T02:52:11.188Z,0
2018-12-10T02:53:10.590Z,0
2018-12-10T02:54:10.564Z,0
2018-12-10T02:55:10.560Z,0
2018-12-10T02:56:10.788Z,0
2018-12-10T02:57:10.527Z,0
2018-12-10T02:58:10.502Z,0
2018-12-10T02:59:10.236Z,0
2018-12-10T03:00:10.485Z,0
2018-12-10T03:01:10.456Z,0
2018-12-10T03:02:10.435Z,0
2018-12-10T03:03:10.180Z,0
2018-12-10T03:04:10.535Z,0
2018-12-10T03:05:10.136Z,0
2018-12-10T03:06:10.357Z,0
2018-12-10T03:07:10.335Z,0
2018-12-10T03:08:10.459Z,0
2018-12-10T03:09:10.298Z,0
2018-12-10T03:10:09.894Z,0
2018-12-10T03:11:10.279Z,0
2018-12-10T03:12:10.249Z,0
2018-12-10T03:13:10.255Z,0
2018-12-10T03:14:10.221Z,0
2018-12-10T03:15:09.949Z,0
2018-12-10T03:16:10.298Z,0
2018-12-10T03:17:10.161Z,0
2018-12-10T03:18:09.900Z,0
2018-12-10T03:19:10.134Z,0
2018-12-10T03:20:10.101Z,0
2018-12-10T03:21:09.854Z,0
2018-12-10T03:22:09.827Z,0
2018-12-10T03:23:10.056Z,0
2018-12-10T03:24:10.047Z,0
2018-12-10T03:25:10.021Z,0
2018-12-10T03:26:10.025Z,0
2018-12-10T03:27:09.739Z,0
2018-12-10T03:28:09.462Z,0
2018-12-10T03:29:09.949Z,0
2018-12-10T03:30:09.741Z,0
2018-12-10T03:31:09.936Z,0
2018-12-10T03:32:10.181Z,0
2018-12-10T03:33:09.920Z,0
2018-12-10T03:34:09.611Z,0
2018-12-10T03:35:09.851Z,0
2018-12-10T03:36:09.584Z,0
2018-12-10T03:37:09.810Z,0
2018-12-10T03:38:09.538Z,0
2018-12-10T03:39:09.510Z,0
2018-12-10T03:40:09.757Z,0
2018-12-10T03:41:09.728Z,0
2018-12-10T03:42:09.704Z,0
2018-12-10T03:43:09.713Z,0
2018-12-10T03:44:09.717Z,0
2018-12-10T03:45:09.407Z,0
2018-12-10T03:46:09.649Z,0
2018-12-10T03:47:09.615Z,0
2018-12-10T03:48:09.352Z,0
2018-12-10T03:49:09.593Z,0
2018-12-10T03:50:09.573Z,0
2018-12-10T03:51:09.582Z,0
2018-12-10T03:52:09.036Z,0
2018-12-10T03:53:09.270Z,0
2018-12-10T03:54:09.495Z,0
2018-12-10T03:55:09.479Z,0
2018-12-10T03:56:09.480Z,0
2018-12-10T03:57:09.204Z,0
2018-12-10T03:58:09.457Z,0
2018-12-10T03:59:09.167Z,0
2018-12-10T04:00:09.456Z,0
2018-12-10T04:01:09.383Z,0
2018-12-10T04:02:09.358Z,0
2018-12-10T04:03:09.353Z,0
2018-12-10T04:04:09.083Z,0
2018-12-10T04:05:09.344Z,0
2018-12-10T04:06:09.290Z,0
2018-12-10T04:07:09.016Z,0
2018-12-10T04:08:09.257Z,0
2018-12-10T04:09:09.250Z,0
2018-12-10T04:10:09.210Z,0
2018-12-10T04:11:09.224Z,0
2018-12-10T04:12:08.932Z,0
2018-12-10T04:13:09.157Z,0
2018-12-10T04:14:09.151Z,0
2018-12-10T04:15:09.125Z,0
2018-12-10T04:16:09.103Z,0
2018-12-10T04:17:09.085Z,0
2018-12-10T04:18:09.073Z,0
2018-12-10T04:19:09.056Z,0
2018-12-10T04:20:08.803Z,0
2018-12-10T04:21:09.027Z,0
2018-12-10T04:22:09.009Z,0
2018-12-10T04:23:08.988Z,0
2018-12-10T04:24:08.725Z,0
2018-12-10T04:25:08.709Z,0
2018-12-10T04:26:08.688Z,0
2018-12-10T04:27:08.921Z,0
2018-12-10T04:28:08.902Z,0
2018-12-10T04:29:08.636Z,0
2018-12-10T04:30:09.011Z,0
2018-12-10T04:31:08.848Z,0
2018-12-10T04:32:08.825Z,0
2018-12-10T04:33:08.822Z,0
2018-12-10T04:34:08.554Z,0
2018-12-10T04:35:08.779Z,0
2018-12-10T04:36:08.765Z,0
2018-12-10T04:37:08.509Z,0
2018-12-10T04:38:08.728Z,0
2018-12-10T04:39:08.725Z,0
2018-12-10T04:40:08.703Z,0
2018-12-10T04:41:08.417Z,0
2018-12-10T04:42:08.159Z,0
2018-12-10T04:43:08.637Z,0
2018-12-10T04:44:08.618Z,0
2018-12-10T04:45:08.601Z,0
2018-12-10T04:46:08.593Z,0
2018-12-10T04:47:08.307Z,0
2018-12-10T04:48:08.293Z,0
2018-12-10T04:49:08.522Z,0
2018-12-10T04:50:08.503Z,0
2018-12-10T04:51:08.507Z,0
2018-12-10T04:52:08.477Z,0
2018-12-10T04:53:08.203Z,0
2018-12-10T04:54:08.189Z,0
2018-12-10T04:55:08.182Z,0
2018-12-10T04:56:08.410Z,0
2018-12-10T04:57:08.156Z,0
2018-12-10T04:58:08.123Z,0
2018-12-10T04:59:08.348Z,0
2018-12-10T05:00:08.491Z,0
2018-12-10T05:01:08.317Z,0
2018-12-10T05:02:08.051Z,0
2018-12-10T05:03:08.284Z,0
2018-12-10T05:04:08.263Z,0
2018-12-10T05:05:08.242Z,0
2018-12-10T05:06:08.226Z,0
2018-12-10T05:07:07.966Z,0
2018-12-10T05:08:10.259Z,0
2018-12-10T05:09:07.922Z,0
2018-12-10T05:10:08.156Z,0
2018-12-10T05:11:08.135Z,0
2018-12-10T05:12:08.121Z,0
2018-12-10T05:13:08.113Z,0
2018-12-10T05:14:07.836Z,0
2018-12-10T05:15:07.816Z,0
2018-12-10T05:16:09.185Z,0
2018-12-10T05:17:08.029Z,0
2018-12-10T05:18:07.767Z,0
2018-12-10T05:19:07.998Z,0
2018-12-10T05:20:07.736Z,0
2018-12-10T05:21:07.962Z,0
2018-12-10T05:22:07.943Z,0
2018-12-10T05:23:07.963Z,0
2018-12-10T05:24:07.664Z,0
2018-12-10T05:25:07.643Z,0
2018-12-10T05:26:07.639Z,0
2018-12-10T05:27:08.593Z,0
2018-12-10T05:28:07.837Z,0
2018-12-10T05:29:07.819Z,0
2018-12-10T05:30:07.561Z,0
2018-12-10T05:31:07.811Z,0
2018-12-10T05:32:07.516Z,0
2018-12-10T05:33:07.755Z,0
2018-12-10T05:34:07.244Z,0
2018-12-10T05:35:07.714Z,0
2018-12-10T05:36:07.695Z,0
2018-12-10T05:37:07.686Z,0
2018-12-10T05:38:07.412Z,0
2018-12-10T05:39:07.645Z,0
2018-12-10T05:40:07.630Z,0
2018-12-10T05:41:07.610Z,0
2018-12-10T05:42:07.592Z,0
2018-12-10T05:43:07.722Z,0
2018-12-10T05:44:07.309Z,0
2018-12-10T05:45:07.541Z,0
2018-12-10T05:46:07.277Z,0
2018-12-10T05:47:07.515Z,0
2018-12-10T05:48:07.484Z,0
2018-12-10T05:49:06.969Z,0
2018-12-10T05:50:07.452Z,0
2018-12-10T05:51:07.431Z,0
2018-12-10T05:52:07.412Z,0
2018-12-10T05:53:06.897Z,0
2018-12-10T05:54:07.385Z,0
2018-12-10T05:55:07.360Z,0
2018-12-10T05:56:07.341Z,0
2018-12-10T05:57:07.325Z,0
2018-12-10T05:58:07.067Z,0
2018-12-10T05:59:07.290Z,0
2018-12-10T06:00:07.280Z,0
2018-12-10T06:01:07.257Z,0
2018-12-10T06:02:07.235Z,0
2018-12-10T06:03:07.019Z,0
2018-12-10T06:04:07.202Z,0
2018-12-10T06:05:07.037Z,0
2018-12-10T06:06:07.202Z,0
2018-12-10T06:07:06.901Z,0
2018-12-10T06:08:07.132Z,0
2018-12-10T06:09:07.117Z,0
2018-12-10T06:10:06.846Z,0
2018-12-10T06:11:07.081Z,0
2018-12-10T06:12:06.808Z,0
2018-12-10T06:13:06.789Z,0
2018-12-10T06:14:07.030Z,0
2018-12-10T06:15:07.009Z,0
2018-12-10T06:16:06.741Z,0
2018-12-10T06:17:07.074Z,0
2018-12-10T06:18:06.954Z,0
2018-12-10T06:19:06.686Z,0
2018-12-10T06:20:06.916Z,0
2018-12-10T06:21:06.896Z,0
2018-12-10T06:22:06.884Z,0
2018-12-10T06:23:06.863Z,0
2018-12-10T06:24:06.875Z,0
2018-12-10T06:25:06.837Z,0
2018-12-10T06:26:06.563Z,0
2018-12-10T06:27:06.793Z,0
2018-12-10T06:28:06.528Z,0
2018-12-10T06:29:06.754Z,0
2018-12-10T06:30:06.744Z,0
2018-12-10T06:31:06.724Z,0
2018-12-10T06:32:06.703Z,0
2018-12-10T06:33:06.754Z,0
2018-12-10T06:34:06.428Z,0
2018-12-10T06:35:06.654Z,0
2018-12-10T06:36:06.651Z,0
2018-12-10T06:37:06.613Z,0
2018-12-10T06:38:06.596Z,0
2018-12-10T06:39:06.080Z,0
2018-12-10T06:40:06.562Z,0
2018-12-10T06:41:06.049Z,0
2018-12-10T06:42:08.291Z,0
2018-12-10T06:43:06.508Z,0
2018-12-10T06:44:06.511Z,0
2018-12-10T06:45:06.485Z,0
2018-12-10T06:46:06.450Z,0
2018-12-10T06:47:06.191Z,0
2018-12-10T06:48:07.414Z,0
2018-12-10T06:49:06.405Z,0
2018-12-10T06:50:06.133Z,0
2018-12-10T06:51:06.363Z,0
2018-12-10T06:52:06.349Z,0
2018-12-10T06:53:06.333Z,0
2018-12-10T06:54:06.317Z,0
2018-12-10T06:55:06.397Z,0
2018-12-10T06:56:06.288Z,0
2018-12-10T06:57:06.017Z,0
2018-12-10T06:58:05.748Z,0
2018-12-10T06:59:05.985Z,0
2018-12-10T07:00:06.214Z,0
2018-12-10T07:01:07.213Z,0
2018-12-10T07:02:05.934Z,0
2018-12-10T07:03:06.258Z,0
2018-12-10T07:04:06.141Z,0
2018-12-10T07:05:06.131Z,0
2018-12-10T07:06:05.853Z,0
2018-12-10T07:07:06.089Z,0
2018-12-10T07:08:05.814Z,0
2018-12-10T07:09:06.048Z,0
2018-12-10T07:10:06.045Z,0
2018-12-10T07:11:06.014Z,0
2018-12-10T07:12:05.993Z,5
2018-12-10T07:13:05.979Z,5
2018-12-10T07:14:06.160Z,5
2018-12-10T07:15:05.944Z,5
2018-12-10T07:16:05.926Z,5
2018-12-10T07:17:05.911Z,5
2018-12-10T07:18:05.650Z,5
2018-12-10T07:19:05.875Z,5
2018-12-10T07:20:05.892Z,5
2018-12-10T07:21:05.592Z,10
2018-12-10T07:22:06.700Z,10
2018-12-10T07:23:05.559Z,5
2018-12-10T07:24:05.784Z,10
2018-12-10T07:25:05.783Z,10
2018-12-10T07:26:05.748Z,10
2018-12-10T07:27:05.729Z,15
2018-12-10T07:28:05.709Z,15
2018-12-10T07:29:05.481Z,15
2018-12-10T07:30:05.678Z,15
2018-12-10T07:31:05.658Z,15
2018-12-10T07:32:05.155Z,25
2018-12-10T07:33:05.624Z,30
2018-12-10T07:34:05.111Z,25
2018-12-10T07:35:05.591Z,20
2018-12-10T07:36:05.575Z,15
2018-12-10T07:37:05.556Z,15
2018-12-10T07:38:05.297Z,15
2018-12-10T07:39:05.516Z,15
2018-12-10T07:40:06.599Z,15
2018-12-10T07:41:05.482Z,20
2018-12-10T07:42:05.465Z,25
2018-12-10T07:43:05.201Z,30
2018-12-10T07:44:05.431Z,25
2018-12-10T07:45:05.425Z,20
2018-12-10T07:46:05.511Z,20
2018-12-10T07:47:05.127Z,20
2018-12-10T07:48:05.359Z,20
2018-12-10T07:49:05.339Z,20
2018-12-10T07:50:05.092Z,25
2018-12-10T07:51:05.313Z,35
2018-12-10T07:52:05.291Z,25
2018-12-10T07:53:05.310Z,25
2018-12-10T07:54:05.253Z,20
2018-12-10T07:55:05.233Z,20
2018-12-10T07:56:04.968Z,15
2018-12-10T07:57:05.200Z,15
2018-12-10T07:58:04.942Z,20
2018-12-10T07:59:05.170Z,15
2018-12-10T08:00:05.148Z,15
2018-12-10T08:01:05.130Z,20
2018-12-10T08:02:05.114Z,15
2018-12-10T08:03:05.217Z,10
2018-12-10T08:04:05.081Z,10
2018-12-10T08:05:12.097Z,10
2018-12-10T08:06:05.174Z,10
2018-12-10T08:07:04.776Z,10
2018-12-10T08:08:05.005Z,10
2018-12-10T08:09:04.989Z,10
2018-12-10T08:10:04.984Z,15
2018-12-10T08:11:04.707Z,15
2018-12-10T08:12:04.954Z,10
2018-12-10T08:13:04.921Z,10
2018-12-10T08:14:05.782Z,15
2018-12-10T08:15:04.649Z,15
2018-12-10T08:16:04.612Z,15
2018-12-10T08:17:04.598Z,15
2018-12-10T08:18:04.584Z,10
2018-12-10T08:19:04.807Z,15
2018-12-10T08:20:04.800Z,15
2018-12-10T08:21:11.640Z,20
2018-12-10T08:22:04.755Z,20
2018-12-10T08:23:04.485Z,20
2018-12-10T08:24:04.466Z,15
2018-12-10T08:25:04.455Z,15
2018-12-10T08:26:04.800Z,20
2018-12-10T08:27:09.372Z,30
2018-12-10T08:28:04.650Z,30
2018-12-10T08:29:16.297Z,40
2018-12-10T08:30:04.362Z,40
2018-12-10T08:31:05.933Z,35
2018-12-10T08:32:05.040Z,40
2018-12-10T08:33:04.553Z,35
2018-12-10T08:34:04.286Z,55
2018-12-10T08:35:03.783Z,60
2018-12-10T08:36:04.507Z,65
2018-12-10T08:37:04.993Z,75
2018-12-10T08:38:04.464Z,85
2018-12-10T08:39:04.450Z,55
2018-12-10T08:40:04.432Z,55
2018-12-10T08:41:04.170Z,60
2018-12-10T08:42:04.177Z,70
2018-12-10T08:43:04.372Z,70
2018-12-10T08:44:04.129Z,70
2018-12-10T08:45:04.333Z,70
2018-12-10T08:46:04.325Z,70
2018-12-10T08:47:04.299Z,65
2018-12-10T08:48:04.368Z,55
2018-12-10T08:49:04.261Z,65
2018-12-10T08:50:04.243Z,60
2018-12-10T08:51:04.117Z,60
2018-12-10T08:52:04.223Z,50
2018-12-10T08:53:03.942Z,45
2018-12-10T08:54:04.192Z,45
2018-12-10T08:55:03.907Z,45
2018-12-10T08:56:04.134Z,55
2018-12-10T08:57:03.930Z,50
2018-12-10T08:58:04.099Z,45
2018-12-10T08:59:04.083Z,40
2018-12-10T09:00:03.565Z,35
2018-12-10T09:01:03.802Z,40
2018-12-10T09:02:04.030Z,40
2018-12-10T09:03:04.011Z,35
2018-12-10T09:04:03.988Z,40
2018-12-10T09:05:04.100Z,45
2018-12-10T09:06:03.957Z,45
2018-12-10T09:07:03.939Z,40
2018-12-10T09:08:03.926Z,40
2018-12-10T09:09:03.651Z,45
2018-12-10T09:10:03.884Z,45
2018-12-10T09:11:03.863Z,40
2018-12-10T09:12:03.845Z,45
2018-12-10T09:13:03.832Z,45
2018-12-10T09:14:03.807Z,45
2018-12-10T09:15:03.790Z,60
2018-12-10T09:16:03.770Z,55
2018-12-10T09:17:03.759Z,45
2018-12-10T09:18:03.496Z,65
2018-12-10T09:19:04.101Z,65
2018-12-10T09:20:03.816Z,65
2018-12-10T09:21:03.433Z,65
2018-12-10T09:22:03.420Z,60
2018-12-10T09:23:03.410Z,75
2018-12-10T09:24:03.626Z,75
2018-12-10T09:25:03.613Z,70
2018-12-10T09:26:03.590Z,70
2018-12-10T09:27:03.590Z,55
2018-12-10T09:28:03.311Z,55
2018-12-10T09:29:03.538Z,60
2018-12-10T09:30:03.526Z,65
2018-12-10T09:31:03.501Z,50
2018-12-10T09:32:03.481Z,45
2018-12-10T09:33:03.467Z,50
2018-12-10T09:34:03.449Z,55
2018-12-10T09:35:03.441Z,45
2018-12-10T09:36:03.412Z,40
2018-12-10T09:37:03.396Z,40
2018-12-10T09:38:03.376Z,40
2018-12-10T09:39:03.116Z,50
2018-12-10T09:40:02.847Z,55
2018-12-10T09:41:03.083Z,45
2018-12-10T09:42:03.311Z,55
2018-12-10T09:43:03.039Z,65
2018-12-10T09:44:03.267Z,70
2018-12-10T09:45:04.284Z,60
2018-12-10T09:46:03.235Z,40
2018-12-10T09:47:08.536Z,30
2018-12-10T09:48:02.950Z,35
2018-12-10T09:49:02.948Z,45
2018-12-10T09:50:03.164Z,75
2018-12-10T09:51:03.149Z,70
2018-12-10T09:52:03.134Z,95
2018-12-10T09:53:03.116Z,105
2018-12-10T09:54:02.595Z,65
2018-12-10T09:55:03.074Z,55
2018-12-10T09:56:03.053Z,35
2018-12-10T09:57:02.787Z,30
2018-12-10T09:58:03.020Z,25
2018-12-10T09:59:03.012Z,25
2018-12-10T10:00:02.982Z,45
2018-12-10T10:01:02.961Z,70
2018-12-10T10:02:02.705Z,65
2018-12-10T10:03:02.776Z,90
2018-12-10T10:04:02.662Z,95
2018-12-10T10:05:02.892Z,150
2018-12-10T10:06:02.633Z,175
2018-12-10T10:07:02.858Z,145
2018-12-10T10:08:02.602Z,115
2018-12-10T10:09:02.831Z,105
2018-12-10T10:10:02.815Z,115
2018-12-10T10:11:02.784Z,120
2018-12-10T10:12:02.527Z,100
2018-12-10T10:13:02.762Z,75
2018-12-10T10:14:02.606Z,60
2018-12-10T10:15:03.119Z,50
2018-12-10T10:16:02.449Z,50
2018-12-10T10:17:02.693Z,70
2018-12-10T10:18:03.805Z,110
2018-12-10T10:19:02.645Z,110
2018-12-10T10:20:02.626Z,105
2018-12-10T10:21:02.361Z,130
2018-12-10T10:22:02.590Z,165
2018-12-10T10:23:02.569Z,160
2018-12-10T10:24:04.113Z,145
2018-12-10T10:25:02.039Z,130
2018-12-10T10:26:02.518Z,110
2018-12-10T10:27:02.575Z,125
2018-12-10T10:28:02.487Z,105
2018-12-10T10:29:02.465Z,120
2018-12-10T10:30:02.449Z,115
2018-12-10T10:31:02.190Z,120
2018-12-10T10:32:02.412Z,125
2018-12-10T10:33:02.528Z,125
2018-12-10T10:34:02.372Z,150
2018-12-10T10:35:02.362Z,165
2018-12-10T10:36:02.344Z,175
2018-12-10T10:37:02.330Z,155
2018-12-10T10:38:02.059Z,110
2018-12-10T10:39:02.288Z,110
2018-12-10T10:40:04.508Z,70
2018-12-10T10:41:02.272Z,70
2018-12-10T10:42:04.256Z,55
2018-12-10T10:43:02.220Z,50
2018-12-10T10:44:02.119Z,85
2018-12-10T10:45:02.185Z,100
2018-12-10T10:46:02.178Z,105
2018-12-10T10:47:02.180Z,110
2018-12-10T10:48:02.131Z,115
2018-12-10T10:49:02.112Z,125
2018-12-10T10:50:02.098Z,105
2018-12-10T10:51:02.149Z,75
2018-12-10T10:52:02.063Z,90
2018-12-10T10:53:01.792Z,110
2018-12-10T10:54:01.911Z,130
2018-12-10T10:55:01.764Z,115
2018-12-10T10:56:01.988Z,105
2018-12-10T10:57:01.982Z,115
2018-12-10T10:58:02.014Z,110
2018-12-10T10:59:01.935Z,105
2018-12-10T11:00:01.923Z,115
2018-12-10T11:01:01.663Z,95
2018-12-10T11:02:01.892Z,75
2018-12-10T11:03:01.876Z,75
2018-12-10T11:04:01.799Z,85
2018-12-10T11:05:01.833Z,105
2018-12-10T11:06:01.815Z,110
2018-12-10T11:07:01.797Z,90
2018-12-10T11:08:01.776Z,75
2018-12-10T11:09:01.759Z,90
2018-12-10T11:10:01.749Z,85
2018-12-10T11:11:01.726Z,90
2018-12-10T11:12:01.471Z,80
2018-12-10T11:13:01.695Z,75
2018-12-10T11:14:01.676Z,75
2018-12-10T11:15:01.654Z,55
2018-12-10T11:16:01.397Z,50
2018-12-10T11:17:01.617Z,40
2018-12-10T11:18:01.596Z,45
2018-12-10T11:19:01.582Z,40
2018-12-10T11:20:01.561Z,45
2018-12-10T11:21:01.544Z,50
2018-12-10T11:22:01.528Z,85
2018-12-10T11:23:01.520Z,130
2018-12-10T11:24:01.508Z,140
2018-12-10T11:25:01.480Z,110
2018-12-10T11:26:01.217Z,115
2018-12-10T11:27:01.452Z,100
2018-12-10T11:28:01.426Z,75
2018-12-10T11:29:01.169Z,75
2018-12-10T11:30:01.391Z,75
2018-12-10T11:31:01.371Z,80
2018-12-10T11:32:01.106Z,85
2018-12-10T11:33:01.372Z,90
2018-12-10T11:34:01.318Z,130
2018-12-10T11:35:01.302Z,140
2018-12-10T11:36:01.285Z,165
2018-12-10T11:37:01.024Z,160
2018-12-10T11:38:01.252Z,195
2018-12-10T11:39:05.216Z,220
2018-12-10T11:40:01.217Z,185
2018-12-10T11:41:01.195Z,140
2018-12-10T11:42:01.188Z,135
2018-12-10T11:43:01.162Z,120
2018-12-10T11:44:01.146Z,95
2018-12-10T11:45:01.136Z,115
2018-12-10T11:46:01.116Z,140
2018-12-10T11:47:01.090Z,130
2018-12-10T11:48:00.830Z,110
2018-12-10T11:49:01.063Z,110
2018-12-10T11:50:01.039Z,95
2018-12-10T11:51:01.031Z,70
2018-12-10T11:52:01.009Z,65
2018-12-10T11:53:00.997Z,60
2018-12-10T11:54:00.968Z,90
2018-12-10T11:55:00.956Z,100
2018-12-10T11:56:00.948Z,105
2018-12-10T11:57:00.934Z,115
2018-12-10T11:58:00.415Z,125
2018-12-10T11:59:00.634Z,125
2018-12-10T12:00:00.619Z,125
2018-12-10T12:01:00.852Z,135
2018-12-10T12:02:00.336Z,95
2018-12-10T12:03:00.826Z,90
2018-12-10T12:04:00.559Z,60
2018-12-10T12:05:00.530Z,45
2018-12-10T12:06:00.765Z,65
2018-12-10T12:07:00.500Z,90
2018-12-10T12:08:00.734Z,80
2018-12-10T12:09:00.715Z,80
2018-12-10T12:10:00.699Z,85
2018-12-10T12:11:00.685Z,95
2018-12-10T12:12:00.657Z,90
2018-12-10T12:13:00.444Z,90
2018-12-10T12:14:00.629Z,90
2018-12-10T12:15:00.371Z,70
2018-12-10T12:16:00.591Z,70
2018-12-10T12:17:00.327Z,60
2018-12-10T12:18:00.308Z,50
2018-12-10T12:19:02.452Z,40
2018-12-10T12:20:00.525Z,40
2018-12-10T12:21:00.009Z,40
2018-12-10T12:22:04.908Z,40
2018-12-10T12:23:00.472Z,50
2018-12-10T12:24:00.462Z,40
2018-12-10T12:25:00.436Z,40
2018-12-10T12:26:00.170Z,45
2018-12-10T12:27:00.148Z,55
2018-12-10T12:28:00.138Z,50
2018-12-10T12:29:00.366Z,30
2018-12-10T12:30:00.097Z,30
2018-12-10T12:31:00.339Z,60
2018-12-10T12:32:00.314Z,60
2018-12-10T12:33:00.296Z,65
2018-12-10T12:34:00.034Z,80
2018-12-10T12:35:00.018Z,100
2018-12-10T12:36:01.011Z,120
2018-12-10T12:36:59.736Z,110
2018-12-10T12:38:00.210Z,100
2018-12-10T12:39:00.195Z,75
2018-12-10T12:40:00.174Z,65
2018-12-10T12:41:00.157Z,60
2018-12-10T12:42:00.137Z,50
2018-12-10T12:43:06.855Z,55
2018-12-10T12:44:00.103Z,65
2018-12-10T12:45:00.091Z,65
2018-12-10T12:46:00.144Z,40
2018-12-10T12:46:59.803Z,40
2018-12-10T12:48:01.920Z,45
2018-12-10T12:49:00.018Z,40
2018-12-10T12:49:59.811Z,50
2018-12-10T12:50:59.992Z,50
2018-12-10T12:51:59.971Z,50
2018-12-10T12:52:59.952Z,55
2018-12-10T12:53:59.440Z,50
2018-12-10T12:54:59.915Z,50
2018-12-10T12:55:59.399Z,45
2018-12-10T12:56:59.879Z,40
2018-12-10T12:57:59.622Z,30
2018-12-10T12:58:59.598Z,40
2018-12-10T12:59:59.586Z,40
2018-12-10T13:01:04.629Z,45
2018-12-10T13:01:59.794Z,50
2018-12-10T13:02:59.529Z,55
2018-12-10T13:03:59.517Z,60
2018-12-10T13:04:59.742Z,55
2018-12-10T13:06:06.561Z,60
2018-12-10T13:06:59.715Z,70
2018-12-10T13:07:59.787Z,70
2018-12-10T13:08:59.683Z,65
2018-12-10T13:09:59.658Z,60
2018-12-10T13:10:59.740Z,45
2018-12-10T13:11:59.624Z,30
2018-12-10T13:12:59.605Z,20
2018-12-10T13:13:59.681Z,20
2018-12-10T13:14:59.569Z,25
2018-12-10T13:15:59.554Z,30
2018-12-10T13:16:59.530Z,30
2018-12-10T13:17:59.272Z,35
2018-12-10T13:18:59.496Z,35
2018-12-10T13:19:59.243Z,35
2018-12-10T13:20:59.217Z,30
2018-12-10T13:21:59.552Z,30
2018-12-10T13:22:59.429Z,30
2018-12-10T13:23:59.168Z,30
2018-12-10T13:24:59.400Z,30
2018-12-10T13:25:59.384Z,25
2018-12-10T13:26:59.375Z,25
2018-12-10T13:27:59.393Z,35
2018-12-10T13:28:59.565Z,40
2018-12-10T13:29:59.311Z,30
2018-12-10T13:30:59.300Z,25
2018-12-10T13:31:59.474Z,30
2018-12-10T13:32:59.290Z,40
2018-12-10T13:33:59.241Z,45
2018-12-10T13:34:59.220Z,45
2018-12-10T13:35:59.214Z,35
2018-12-10T13:36:59.194Z,25
2018-12-10T13:37:59.177Z,25
2018-12-10T13:38:59.152Z,35
2018-12-10T13:39:58.889Z,40
2018-12-10T13:40:58.880Z,35
2018-12-10T13:41:59.149Z,40
2018-12-10T13:42:59.117Z,40
2018-12-10T13:43:59.559Z,45
2018-12-10T13:44:59.048Z,55
2018-12-10T13:45:59.254Z,60
2018-12-10T13:46:59.029Z,65
2018-12-10T13:47:58.753Z,60
2018-12-10T13:48:58.980Z,60
2018-12-10T13:49:58.958Z,60
2018-12-10T13:50:58.694Z,55
2018-12-10T13:51:58.930Z,55
2018-12-10T13:52:59.403Z,55
2018-12-10T13:53:58.646Z,55
2018-12-10T13:54:58.621Z,60
2018-12-10T13:55:58.861Z,60
2018-12-10T13:56:58.871Z,60
2018-12-10T13:57:58.821Z,60
2018-12-10T13:58:58.806Z,60
2018-12-10T13:59:58.539Z,55
2018-12-10T14:01:00.860Z,45
2018-12-10T14:01:58.503Z,35
2018-12-10T14:02:58.743Z,25
2018-12-10T14:03:58.476Z,30
2018-12-10T14:04:58.703Z,25
2018-12-10T14:05:58.683Z,15
2018-12-10T14:06:58.669Z,10
2018-12-10T14:07:58.652Z,10
2018-12-10T14:08:58.627Z,10
2018-12-10T14:09:58.364Z,10
2018-12-10T14:10:58.603Z,15
2018-12-10T14:11:58.502Z,15
2018-12-10T14:12:58.558Z,15
2018-12-10T14:13:58.555Z,20
2018-12-10T14:14:58.524Z,25
2018-12-10T14:15:58.528Z,25
2018-12-10T14:16:58.502Z,25
2018-12-10T14:17:58.479Z,20
2018-12-10T14:18:58.456Z,20
2018-12-10T14:19:58.449Z,15
2018-12-10T14:20:58.416Z,10
2018-12-10T14:21:58.270Z,10
2018-12-10T14:22:58.385Z,10
2018-12-10T14:23:58.121Z,20
2018-12-10T14:24:58.350Z,25
2018-12-10T14:25:58.329Z,25
2018-12-10T14:26:58.315Z,25
2018-12-10T14:27:58.299Z,25